<?xml version="1.0" encoding="UTF-8" standalone="no" ?>
<gpx xmlns="http://www.topografix.com/GPX/1/1" xmlns:xsi="http://www.w3.org/2001/XMLSchema-instance" xsi:schemaLocation="http://www.topografix.com/GPX/1/1 http://www.topografix.com/GPX/1/1/gpx.xsd" version="1.1" creator="VisuGPX - https://www.visugpx.com">
  <metadata>
    <name>Tour des Peygus Combe Malazen</name>
    <desc><![CDATA[Laus Cervières Queyras 25/02/2014]]></desc>
  </metadata>
  <trk>
    <name><![CDATA[2014-02-25 08:35]]></name>
    <desc><![CDATA[<h1>OruxMaps</h1><br /><hr align="center" width="480" style="height: 2px; width: 517px"/><h2>Nom: 2014-02-25 08:35</h2><br /><p>Temps de départ: 02/25/2014 08:35</p><p>Temps d'arrivée: 02/25/2014 15:00</p><p>Distance: 12,1 km (06:24)</p><p>Temps déplacement: 03:06</p><p>Vitesse moyenne: 1,9 km/h</p><p>Vitesse moyenne: 3,9 km/h</p><p>Vitess Max.: 31,1 km/h</p><p>Altitude minimale: 1739 m</p><p>Altitude maximale: 2610 m</p><p>Vitesse d'élévation: 310,8 m/h</p><p>Vitesse de descente: -440,9 m/h</p><p>Gain Altitude: 1140 m</p><p>Perte Altitude: -1174 m</p><p>Temps d'élévation: 03:40</p><p>Temps de descente: 02:39</p><hr align="center" width="480" style="height: 2px; width: 517px"/>]]></desc>
    <trkseg>
      <trkpt lat="44.8549" lon="6.72736">
        <ele>1789.44</ele>
        <time>2014-02-25T07:35:56Z</time>
      </trkpt>
      <trkpt lat="44.85509" lon="6.72726">
        <ele>1790.18</ele>
        <time>2014-02-25T07:36:10Z</time>
      </trkpt>
      <trkpt lat="44.85492" lon="6.72739">
        <ele>1781.64</ele>
        <time>2014-02-25T07:37:22Z</time>
      </trkpt>
      <trkpt lat="44.85474" lon="6.72742">
        <ele>1758.85</ele>
        <time>2014-02-25T07:39:59Z</time>
      </trkpt>
      <trkpt lat="44.85456" lon="6.72737">
        <ele>1752.13</ele>
        <time>2014-02-25T07:40:26Z</time>
      </trkpt>
      <trkpt lat="44.85437" lon="6.72732">
        <ele>1748.81</ele>
        <time>2014-02-25T07:40:50Z</time>
      </trkpt>
      <trkpt lat="44.8542" lon="6.72723">
        <ele>1753.19</ele>
        <time>2014-02-25T07:41:05Z</time>
      </trkpt>
      <trkpt lat="44.85402" lon="6.72718">
        <ele>1754.43</ele>
        <time>2014-02-25T07:41:22Z</time>
      </trkpt>
      <trkpt lat="44.85384" lon="6.72709">
        <ele>1756.73</ele>
        <time>2014-02-25T07:41:38Z</time>
      </trkpt>
      <trkpt lat="44.85367" lon="6.72699">
        <ele>1759.26</ele>
        <time>2014-02-25T07:41:55Z</time>
      </trkpt>
      <trkpt lat="44.85348" lon="6.72693">
        <ele>1758.09</ele>
        <time>2014-02-25T07:42:09Z</time>
      </trkpt>
      <trkpt lat="44.85331" lon="6.72683">
        <ele>1762.25</ele>
        <time>2014-02-25T07:42:27Z</time>
      </trkpt>
      <trkpt lat="44.85326" lon="6.72658">
        <ele>1751.55</ele>
        <time>2014-02-25T07:42:56Z</time>
      </trkpt>
      <trkpt lat="44.85326" lon="6.72632">
        <ele>1753.88</ele>
        <time>2014-02-25T07:43:15Z</time>
      </trkpt>
      <trkpt lat="44.85336" lon="6.72611">
        <ele>1748.16</ele>
        <time>2014-02-25T07:43:31Z</time>
      </trkpt>
      <trkpt lat="44.85346" lon="6.7259">
        <ele>1746.7</ele>
        <time>2014-02-25T07:43:45Z</time>
      </trkpt>
      <trkpt lat="44.85359" lon="6.72571">
        <ele>1744.97</ele>
        <time>2014-02-25T07:44:01Z</time>
      </trkpt>
      <trkpt lat="44.85373" lon="6.72555">
        <ele>1748.34</ele>
        <time>2014-02-25T07:44:19Z</time>
      </trkpt>
      <trkpt lat="44.85366" lon="6.72531">
        <ele>1756.73</ele>
        <time>2014-02-25T07:44:46Z</time>
      </trkpt>
      <trkpt lat="44.85353" lon="6.72512">
        <ele>1760.52</ele>
        <time>2014-02-25T07:45:04Z</time>
      </trkpt>
      <trkpt lat="44.85339" lon="6.72495">
        <ele>1757.18</ele>
        <time>2014-02-25T07:45:21Z</time>
      </trkpt>
      <trkpt lat="44.85326" lon="6.72477">
        <ele>1762.76</ele>
        <time>2014-02-25T07:45:34Z</time>
      </trkpt>
      <trkpt lat="44.85312" lon="6.72459">
        <ele>1763.67</ele>
        <time>2014-02-25T07:45:48Z</time>
      </trkpt>
      <trkpt lat="44.85295" lon="6.72448">
        <ele>1764.54</ele>
        <time>2014-02-25T07:46:10Z</time>
      </trkpt>
      <trkpt lat="44.85278" lon="6.72437">
        <ele>1770.3</ele>
        <time>2014-02-25T07:46:28Z</time>
      </trkpt>
      <trkpt lat="44.8526" lon="6.72441">
        <ele>1775.95</ele>
        <time>2014-02-25T07:46:51Z</time>
      </trkpt>
      <trkpt lat="44.85241" lon="6.72439">
        <ele>1777.64</ele>
        <time>2014-02-25T07:47:12Z</time>
      </trkpt>
      <trkpt lat="44.85222" lon="6.7244">
        <ele>1778.96</ele>
        <time>2014-02-25T07:47:29Z</time>
      </trkpt>
      <trkpt lat="44.85192" lon="6.72442">
        <ele>1784.2</ele>
        <time>2014-02-25T07:47:58Z</time>
      </trkpt>
      <trkpt lat="44.85174" lon="6.72444">
        <ele>1785.16</ele>
        <time>2014-02-25T07:48:17Z</time>
      </trkpt>
      <trkpt lat="44.85155" lon="6.72448">
        <ele>1790.42</ele>
        <time>2014-02-25T07:48:41Z</time>
      </trkpt>
      <trkpt lat="44.85137" lon="6.72453">
        <ele>1790.43</ele>
        <time>2014-02-25T07:48:57Z</time>
      </trkpt>
      <trkpt lat="44.85119" lon="6.72458">
        <ele>1790.01</ele>
        <time>2014-02-25T07:49:19Z</time>
      </trkpt>
      <trkpt lat="44.85101" lon="6.72465">
        <ele>1793.06</ele>
        <time>2014-02-25T07:49:36Z</time>
      </trkpt>
      <trkpt lat="44.85084" lon="6.72478">
        <ele>1784.91</ele>
        <time>2014-02-25T07:49:54Z</time>
      </trkpt>
      <trkpt lat="44.85068" lon="6.72489">
        <ele>1788.95</ele>
        <time>2014-02-25T07:50:14Z</time>
      </trkpt>
      <trkpt lat="44.8505" lon="6.72497">
        <ele>1791.4</ele>
        <time>2014-02-25T07:50:34Z</time>
      </trkpt>
      <trkpt lat="44.85032" lon="6.72502">
        <ele>1786.52</ele>
        <time>2014-02-25T07:50:53Z</time>
      </trkpt>
      <trkpt lat="44.85015" lon="6.72506">
        <ele>1786.52</ele>
        <time>2014-02-25T07:51:11Z</time>
      </trkpt>
      <trkpt lat="44.84996" lon="6.72498">
        <ele>1780.53</ele>
        <time>2014-02-25T07:51:30Z</time>
      </trkpt>
      <trkpt lat="44.84979" lon="6.72487">
        <ele>1775.79</ele>
        <time>2014-02-25T07:51:47Z</time>
      </trkpt>
      <trkpt lat="44.84963" lon="6.72475">
        <ele>1779.78</ele>
        <time>2014-02-25T07:52:06Z</time>
      </trkpt>
      <trkpt lat="44.84945" lon="6.72469">
        <ele>1781.09</ele>
        <time>2014-02-25T07:52:25Z</time>
      </trkpt>
      <trkpt lat="44.84927" lon="6.72464">
        <ele>1785.57</ele>
        <time>2014-02-25T07:52:44Z</time>
      </trkpt>
      <trkpt lat="44.84909" lon="6.72461">
        <ele>1795.1</ele>
        <time>2014-02-25T07:53:00Z</time>
      </trkpt>
      <trkpt lat="44.8489" lon="6.72462">
        <ele>1792.93</ele>
        <time>2014-02-25T07:53:20Z</time>
      </trkpt>
      <trkpt lat="44.84872" lon="6.72465">
        <ele>1802.73</ele>
        <time>2014-02-25T07:53:40Z</time>
      </trkpt>
      <trkpt lat="44.84854" lon="6.72468">
        <ele>1805.4</ele>
        <time>2014-02-25T07:54:08Z</time>
      </trkpt>
      <trkpt lat="44.84836" lon="6.72471">
        <ele>1808.26</ele>
        <time>2014-02-25T07:54:26Z</time>
      </trkpt>
      <trkpt lat="44.84818" lon="6.7247">
        <ele>1810.84</ele>
        <time>2014-02-25T07:54:43Z</time>
      </trkpt>
      <trkpt lat="44.84799" lon="6.72471">
        <ele>1796.85</ele>
        <time>2014-02-25T07:55:03Z</time>
      </trkpt>
      <trkpt lat="44.84781" lon="6.72478">
        <ele>1817.95</ele>
        <time>2014-02-25T07:55:18Z</time>
      </trkpt>
      <trkpt lat="44.84763" lon="6.72483">
        <ele>1822.61</ele>
        <time>2014-02-25T07:55:34Z</time>
      </trkpt>
      <trkpt lat="44.84746" lon="6.72493">
        <ele>1819.42</ele>
        <time>2014-02-25T07:55:55Z</time>
      </trkpt>
      <trkpt lat="44.8473" lon="6.72506">
        <ele>1813</ele>
        <time>2014-02-25T07:56:12Z</time>
      </trkpt>
      <trkpt lat="44.84715" lon="6.72522">
        <ele>1812.15</ele>
        <time>2014-02-25T07:56:33Z</time>
      </trkpt>
      <trkpt lat="44.847" lon="6.72536">
        <ele>1817.16</ele>
        <time>2014-02-25T07:56:52Z</time>
      </trkpt>
      <trkpt lat="44.84683" lon="6.72547">
        <ele>1815.32</ele>
        <time>2014-02-25T07:57:16Z</time>
      </trkpt>
      <trkpt lat="44.84668" lon="6.7256">
        <ele>1817.36</ele>
        <time>2014-02-25T07:57:34Z</time>
      </trkpt>
      <trkpt lat="44.8465" lon="6.7257">
        <ele>1816.87</ele>
        <time>2014-02-25T07:57:56Z</time>
      </trkpt>
      <trkpt lat="44.84632" lon="6.72577">
        <ele>1817.43</ele>
        <time>2014-02-25T07:58:15Z</time>
      </trkpt>
      <trkpt lat="44.84613" lon="6.72579">
        <ele>1812.73</ele>
        <time>2014-02-25T07:58:36Z</time>
      </trkpt>
      <trkpt lat="44.84596" lon="6.72571">
        <ele>1808.89</ele>
        <time>2014-02-25T07:58:54Z</time>
      </trkpt>
      <trkpt lat="44.84579" lon="6.72563">
        <ele>1808.14</ele>
        <time>2014-02-25T07:59:13Z</time>
      </trkpt>
      <trkpt lat="44.84563" lon="6.7255">
        <ele>1816.89</ele>
        <time>2014-02-25T07:59:31Z</time>
      </trkpt>
      <trkpt lat="44.84547" lon="6.72535">
        <ele>1823.72</ele>
        <time>2014-02-25T07:59:50Z</time>
      </trkpt>
      <trkpt lat="44.84531" lon="6.72521">
        <ele>1827.32</ele>
        <time>2014-02-25T08:00:08Z</time>
      </trkpt>
      <trkpt lat="44.84516" lon="6.72507">
        <ele>1835.2</ele>
        <time>2014-02-25T08:00:26Z</time>
      </trkpt>
      <trkpt lat="44.845" lon="6.72493">
        <ele>1831.13</ele>
        <time>2014-02-25T08:00:47Z</time>
      </trkpt>
      <trkpt lat="44.84486" lon="6.72477">
        <ele>1831.1</ele>
        <time>2014-02-25T08:01:04Z</time>
      </trkpt>
      <trkpt lat="44.8447" lon="6.72464">
        <ele>1838.11</ele>
        <time>2014-02-25T08:01:22Z</time>
      </trkpt>
      <trkpt lat="44.84452" lon="6.72458">
        <ele>1838.76</ele>
        <time>2014-02-25T08:01:44Z</time>
      </trkpt>
      <trkpt lat="44.84435" lon="6.72448">
        <ele>1836.34</ele>
        <time>2014-02-25T08:02:01Z</time>
      </trkpt>
      <trkpt lat="44.84418" lon="6.72439">
        <ele>1843.49</ele>
        <time>2014-02-25T08:02:22Z</time>
      </trkpt>
      <trkpt lat="44.84406" lon="6.7242">
        <ele>1840.23</ele>
        <time>2014-02-25T08:02:44Z</time>
      </trkpt>
      <trkpt lat="44.8439" lon="6.72407">
        <ele>1845.26</ele>
        <time>2014-02-25T08:03:00Z</time>
      </trkpt>
      <trkpt lat="44.84371" lon="6.72409">
        <ele>1849.48</ele>
        <time>2014-02-25T08:03:22Z</time>
      </trkpt>
      <trkpt lat="44.84353" lon="6.72408">
        <ele>1846.15</ele>
        <time>2014-02-25T08:03:47Z</time>
      </trkpt>
      <trkpt lat="44.84335" lon="6.72414">
        <ele>1852.18</ele>
        <time>2014-02-25T08:04:00Z</time>
      </trkpt>
      <trkpt lat="44.84317" lon="6.72422">
        <ele>1853.86</ele>
        <time>2014-02-25T08:04:16Z</time>
      </trkpt>
      <trkpt lat="44.84299" lon="6.72433">
        <ele>1851.59</ele>
        <time>2014-02-25T08:04:32Z</time>
      </trkpt>
      <trkpt lat="44.84282" lon="6.72439">
        <ele>1856.33</ele>
        <time>2014-02-25T08:04:50Z</time>
      </trkpt>
      <trkpt lat="44.84264" lon="6.72444">
        <ele>1864.95</ele>
        <time>2014-02-25T08:05:16Z</time>
      </trkpt>
      <trkpt lat="44.84246" lon="6.7245">
        <ele>1859.25</ele>
        <time>2014-02-25T08:06:10Z</time>
      </trkpt>
      <trkpt lat="44.84228" lon="6.72456">
        <ele>1858.01</ele>
        <time>2014-02-25T08:06:32Z</time>
      </trkpt>
      <trkpt lat="44.84211" lon="6.7246">
        <ele>1858.73</ele>
        <time>2014-02-25T08:06:53Z</time>
      </trkpt>
      <trkpt lat="44.84193" lon="6.72464">
        <ele>1864.87</ele>
        <time>2014-02-25T08:07:16Z</time>
      </trkpt>
      <trkpt lat="44.84152" lon="6.72456">
        <ele>1867.67</ele>
        <time>2014-02-25T08:07:58Z</time>
      </trkpt>
      <trkpt lat="44.84133" lon="6.72454">
        <ele>1871.74</ele>
        <time>2014-02-25T08:08:22Z</time>
      </trkpt>
      <trkpt lat="44.84116" lon="6.72446">
        <ele>1876.63</ele>
        <time>2014-02-25T08:08:43Z</time>
      </trkpt>
      <trkpt lat="44.84097" lon="6.72444">
        <ele>1881.83</ele>
        <time>2014-02-25T08:09:04Z</time>
      </trkpt>
      <trkpt lat="44.84079" lon="6.72437">
        <ele>1883.6</ele>
        <time>2014-02-25T08:09:28Z</time>
      </trkpt>
      <trkpt lat="44.84061" lon="6.72433">
        <ele>1885.73</ele>
        <time>2014-02-25T08:09:46Z</time>
      </trkpt>
      <trkpt lat="44.84046" lon="6.7242">
        <ele>1888.83</ele>
        <time>2014-02-25T08:10:07Z</time>
      </trkpt>
      <trkpt lat="44.84031" lon="6.72404">
        <ele>1890.39</ele>
        <time>2014-02-25T08:10:30Z</time>
      </trkpt>
      <trkpt lat="44.84013" lon="6.72398">
        <ele>1881.08</ele>
        <time>2014-02-25T08:10:51Z</time>
      </trkpt>
      <trkpt lat="44.83995" lon="6.72394">
        <ele>1888.98</ele>
        <time>2014-02-25T08:11:13Z</time>
      </trkpt>
      <trkpt lat="44.83977" lon="6.72388">
        <ele>1894.88</ele>
        <time>2014-02-25T08:11:28Z</time>
      </trkpt>
      <trkpt lat="44.83959" lon="6.72394">
        <ele>1897.78</ele>
        <time>2014-02-25T08:11:45Z</time>
      </trkpt>
      <trkpt lat="44.83941" lon="6.72393">
        <ele>1893.81</ele>
        <time>2014-02-25T08:12:04Z</time>
      </trkpt>
      <trkpt lat="44.83923" lon="6.72399">
        <ele>1903.86</ele>
        <time>2014-02-25T08:12:26Z</time>
      </trkpt>
      <trkpt lat="44.83904" lon="6.72397">
        <ele>1903.96</ele>
        <time>2014-02-25T08:12:50Z</time>
      </trkpt>
      <trkpt lat="44.83885" lon="6.72401">
        <ele>1904.49</ele>
        <time>2014-02-25T08:13:08Z</time>
      </trkpt>
      <trkpt lat="44.83867" lon="6.72404">
        <ele>1906.21</ele>
        <time>2014-02-25T08:13:27Z</time>
      </trkpt>
      <trkpt lat="44.83849" lon="6.72403">
        <ele>1910.79</ele>
        <time>2014-02-25T08:13:51Z</time>
      </trkpt>
      <trkpt lat="44.8383" lon="6.72402">
        <ele>1909.21</ele>
        <time>2014-02-25T08:14:10Z</time>
      </trkpt>
      <trkpt lat="44.83812" lon="6.72395">
        <ele>1914.29</ele>
        <time>2014-02-25T08:14:34Z</time>
      </trkpt>
      <trkpt lat="44.83797" lon="6.7238">
        <ele>1913.74</ele>
        <time>2014-02-25T08:14:59Z</time>
      </trkpt>
      <trkpt lat="44.8378" lon="6.72372">
        <ele>1913.69</ele>
        <time>2014-02-25T08:15:17Z</time>
      </trkpt>
      <trkpt lat="44.83761" lon="6.72375">
        <ele>1911.77</ele>
        <time>2014-02-25T08:15:37Z</time>
      </trkpt>
      <trkpt lat="44.83743" lon="6.72377">
        <ele>1914.7</ele>
        <time>2014-02-25T08:15:59Z</time>
      </trkpt>
      <trkpt lat="44.83725" lon="6.72376">
        <ele>1918.68</ele>
        <time>2014-02-25T08:16:24Z</time>
      </trkpt>
      <trkpt lat="44.83706" lon="6.7237">
        <ele>1919.41</ele>
        <time>2014-02-25T08:16:48Z</time>
      </trkpt>
      <trkpt lat="44.83688" lon="6.72365">
        <ele>1922.42</ele>
        <time>2014-02-25T08:17:07Z</time>
      </trkpt>
      <trkpt lat="44.83669" lon="6.72366">
        <ele>1927.03</ele>
        <time>2014-02-25T08:17:31Z</time>
      </trkpt>
      <trkpt lat="44.83651" lon="6.72367">
        <ele>1930.08</ele>
        <time>2014-02-25T08:18:04Z</time>
      </trkpt>
      <trkpt lat="44.83635" lon="6.72378">
        <ele>1928.35</ele>
        <time>2014-02-25T08:18:26Z</time>
      </trkpt>
      <trkpt lat="44.83617" lon="6.72386">
        <ele>1931.4</ele>
        <time>2014-02-25T08:18:52Z</time>
      </trkpt>
      <trkpt lat="44.836" lon="6.72396">
        <ele>1941.1</ele>
        <time>2014-02-25T08:19:21Z</time>
      </trkpt>
      <trkpt lat="44.83582" lon="6.72398">
        <ele>1949.44</ele>
        <time>2014-02-25T08:23:13Z</time>
      </trkpt>
      <trkpt lat="44.83584" lon="6.72424">
        <ele>1955.44</ele>
        <time>2014-02-25T08:26:08Z</time>
      </trkpt>
      <trkpt lat="44.83598" lon="6.72439">
        <ele>1965.31</ele>
        <time>2014-02-25T08:26:37Z</time>
      </trkpt>
      <trkpt lat="44.83607" lon="6.72461">
        <ele>1963.69</ele>
        <time>2014-02-25T08:27:25Z</time>
      </trkpt>
      <trkpt lat="44.8361" lon="6.72487">
        <ele>1972.12</ele>
        <time>2014-02-25T08:28:01Z</time>
      </trkpt>
      <trkpt lat="44.83614" lon="6.72512">
        <ele>1978.1</ele>
        <time>2014-02-25T08:28:43Z</time>
      </trkpt>
      <trkpt lat="44.83613" lon="6.72537">
        <ele>1994.68</ele>
        <time>2014-02-25T08:30:22Z</time>
      </trkpt>
      <trkpt lat="44.83607" lon="6.72561">
        <ele>1995.45</ele>
        <time>2014-02-25T08:30:55Z</time>
      </trkpt>
      <trkpt lat="44.83599" lon="6.72584">
        <ele>2003.32</ele>
        <time>2014-02-25T08:31:26Z</time>
      </trkpt>
      <trkpt lat="44.83588" lon="6.72604">
        <ele>2014.04</ele>
        <time>2014-02-25T08:32:10Z</time>
      </trkpt>
      <trkpt lat="44.8357" lon="6.7261">
        <ele>2014.32</ele>
        <time>2014-02-25T08:33:04Z</time>
      </trkpt>
      <trkpt lat="44.83554" lon="6.72622">
        <ele>2023.44</ele>
        <time>2014-02-25T08:33:59Z</time>
      </trkpt>
      <trkpt lat="44.83536" lon="6.72628">
        <ele>2032.38</ele>
        <time>2014-02-25T08:34:41Z</time>
      </trkpt>
      <trkpt lat="44.83519" lon="6.72636">
        <ele>2034.74</ele>
        <time>2014-02-25T08:35:34Z</time>
      </trkpt>
      <trkpt lat="44.83502" lon="6.72644">
        <ele>2076.81</ele>
        <time>2014-02-25T08:36:15Z</time>
      </trkpt>
      <trkpt lat="44.83484" lon="6.72647">
        <ele>2049.91</ele>
        <time>2014-02-25T08:37:16Z</time>
      </trkpt>
      <trkpt lat="44.83466" lon="6.72645">
        <ele>2053.38</ele>
        <time>2014-02-25T08:37:45Z</time>
      </trkpt>
      <trkpt lat="44.83448" lon="6.72647">
        <ele>2058.18</ele>
        <time>2014-02-25T08:38:16Z</time>
      </trkpt>
      <trkpt lat="44.83431" lon="6.72656">
        <ele>2064.31</ele>
        <time>2014-02-25T08:38:52Z</time>
      </trkpt>
      <trkpt lat="44.83413" lon="6.72662">
        <ele>2068.38</ele>
        <time>2014-02-25T08:39:27Z</time>
      </trkpt>
      <trkpt lat="44.83395" lon="6.72669">
        <ele>2072.44</ele>
        <time>2014-02-25T08:40:12Z</time>
      </trkpt>
      <trkpt lat="44.83378" lon="6.72676">
        <ele>2078.11</ele>
        <time>2014-02-25T08:40:42Z</time>
      </trkpt>
      <trkpt lat="44.8336" lon="6.72678">
        <ele>2085.57</ele>
        <time>2014-02-25T08:41:23Z</time>
      </trkpt>
      <trkpt lat="44.83343" lon="6.72688">
        <ele>2089.92</ele>
        <time>2014-02-25T08:41:56Z</time>
      </trkpt>
      <trkpt lat="44.83328" lon="6.72703">
        <ele>2095.07</ele>
        <time>2014-02-25T08:42:33Z</time>
      </trkpt>
      <trkpt lat="44.83312" lon="6.72717">
        <ele>2099.32</ele>
        <time>2014-02-25T08:43:06Z</time>
      </trkpt>
      <trkpt lat="44.83295" lon="6.72726">
        <ele>2106.52</ele>
        <time>2014-02-25T08:43:35Z</time>
      </trkpt>
      <trkpt lat="44.83278" lon="6.72736">
        <ele>2113.43</ele>
        <time>2014-02-25T08:44:54Z</time>
      </trkpt>
      <trkpt lat="44.83261" lon="6.72744">
        <ele>2117.95</ele>
        <time>2014-02-25T08:51:36Z</time>
      </trkpt>
      <trkpt lat="44.83243" lon="6.72751">
        <ele>2125.23</ele>
        <time>2014-02-25T08:52:02Z</time>
      </trkpt>
      <trkpt lat="44.83225" lon="6.72757">
        <ele>2129.21</ele>
        <time>2014-02-25T08:52:36Z</time>
      </trkpt>
      <trkpt lat="44.83207" lon="6.7276">
        <ele>2129.51</ele>
        <time>2014-02-25T08:53:07Z</time>
      </trkpt>
      <trkpt lat="44.83192" lon="6.72746">
        <ele>2126.02</ele>
        <time>2014-02-25T08:53:35Z</time>
      </trkpt>
      <trkpt lat="44.83181" lon="6.72725">
        <ele>2125.45</ele>
        <time>2014-02-25T08:53:52Z</time>
      </trkpt>
      <trkpt lat="44.83185" lon="6.72699">
        <ele>2126.81</ele>
        <time>2014-02-25T08:54:33Z</time>
      </trkpt>
      <trkpt lat="44.83186" lon="6.72673">
        <ele>2130.15</ele>
        <time>2014-02-25T08:54:51Z</time>
      </trkpt>
      <trkpt lat="44.83181" lon="6.72648">
        <ele>2128.54</ele>
        <time>2014-02-25T08:55:08Z</time>
      </trkpt>
      <trkpt lat="44.83172" lon="6.72625">
        <ele>2129.82</ele>
        <time>2014-02-25T08:55:25Z</time>
      </trkpt>
      <trkpt lat="44.83163" lon="6.72602">
        <ele>2131.38</ele>
        <time>2014-02-25T08:55:43Z</time>
      </trkpt>
      <trkpt lat="44.83151" lon="6.72583">
        <ele>2130.07</ele>
        <time>2014-02-25T08:56:03Z</time>
      </trkpt>
      <trkpt lat="44.83136" lon="6.72566">
        <ele>2127.68</ele>
        <time>2014-02-25T08:56:19Z</time>
      </trkpt>
      <trkpt lat="44.83119" lon="6.72557">
        <ele>2126.76</ele>
        <time>2014-02-25T08:56:33Z</time>
      </trkpt>
      <trkpt lat="44.831" lon="6.72554">
        <ele>2123.37</ele>
        <time>2014-02-25T08:56:47Z</time>
      </trkpt>
      <trkpt lat="44.83085" lon="6.72539">
        <ele>2125.38</ele>
        <time>2014-02-25T08:57:02Z</time>
      </trkpt>
      <trkpt lat="44.83076" lon="6.72516">
        <ele>2122.51</ele>
        <time>2014-02-25T08:57:19Z</time>
      </trkpt>
      <trkpt lat="44.83068" lon="6.72492">
        <ele>2122.07</ele>
        <time>2014-02-25T08:57:33Z</time>
      </trkpt>
      <trkpt lat="44.83061" lon="6.72467">
        <ele>2120.21</ele>
        <time>2014-02-25T08:57:49Z</time>
      </trkpt>
      <trkpt lat="44.83043" lon="6.72471">
        <ele>2118.7</ele>
        <time>2014-02-25T08:58:06Z</time>
      </trkpt>
      <trkpt lat="44.83025" lon="6.72467">
        <ele>2117.95</ele>
        <time>2014-02-25T08:58:25Z</time>
      </trkpt>
      <trkpt lat="44.83013" lon="6.72447">
        <ele>2121.32</ele>
        <time>2014-02-25T09:06:03Z</time>
      </trkpt>
      <trkpt lat="44.83023" lon="6.72426">
        <ele>2121.52</ele>
        <time>2014-02-25T09:06:45Z</time>
      </trkpt>
      <trkpt lat="44.83037" lon="6.72409">
        <ele>2121.94</ele>
        <time>2014-02-25T09:07:04Z</time>
      </trkpt>
      <trkpt lat="44.83051" lon="6.72393">
        <ele>2123.94</ele>
        <time>2014-02-25T09:07:22Z</time>
      </trkpt>
      <trkpt lat="44.83058" lon="6.72369">
        <ele>2126.17</ele>
        <time>2014-02-25T09:07:39Z</time>
      </trkpt>
      <trkpt lat="44.83051" lon="6.72345">
        <ele>2128.18</ele>
        <time>2014-02-25T09:07:58Z</time>
      </trkpt>
      <trkpt lat="44.8306" lon="6.72322">
        <ele>2128.44</ele>
        <time>2014-02-25T09:08:25Z</time>
      </trkpt>
      <trkpt lat="44.83065" lon="6.72297">
        <ele>2126.91</ele>
        <time>2014-02-25T09:09:00Z</time>
      </trkpt>
      <trkpt lat="44.8308" lon="6.72283">
        <ele>2131.9</ele>
        <time>2014-02-25T09:09:19Z</time>
      </trkpt>
      <trkpt lat="44.83096" lon="6.72269">
        <ele>2132.82</ele>
        <time>2014-02-25T09:09:45Z</time>
      </trkpt>
      <trkpt lat="44.83095" lon="6.72243">
        <ele>2132.69</ele>
        <time>2014-02-25T09:10:02Z</time>
      </trkpt>
      <trkpt lat="44.83101" lon="6.72219">
        <ele>2131.86</ele>
        <time>2014-02-25T09:10:21Z</time>
      </trkpt>
      <trkpt lat="44.83113" lon="6.72199">
        <ele>2136.75</ele>
        <time>2014-02-25T09:10:49Z</time>
      </trkpt>
      <trkpt lat="44.83114" lon="6.72173">
        <ele>2142.28</ele>
        <time>2014-02-25T09:11:22Z</time>
      </trkpt>
      <trkpt lat="44.83119" lon="6.72149">
        <ele>2145.78</ele>
        <time>2014-02-25T09:12:38Z</time>
      </trkpt>
      <trkpt lat="44.83123" lon="6.72123">
        <ele>2148.45</ele>
        <time>2014-02-25T09:13:10Z</time>
      </trkpt>
      <trkpt lat="44.83126" lon="6.72098">
        <ele>2152.44</ele>
        <time>2014-02-25T09:13:47Z</time>
      </trkpt>
      <trkpt lat="44.83129" lon="6.72073">
        <ele>2161.27</ele>
        <time>2014-02-25T09:14:21Z</time>
      </trkpt>
      <trkpt lat="44.83117" lon="6.72053">
        <ele>2164.44</ele>
        <time>2014-02-25T09:14:48Z</time>
      </trkpt>
      <trkpt lat="44.83103" lon="6.72037">
        <ele>2165.37</ele>
        <time>2014-02-25T09:15:16Z</time>
      </trkpt>
      <trkpt lat="44.83093" lon="6.72015">
        <ele>2172.19</ele>
        <time>2014-02-25T09:15:55Z</time>
      </trkpt>
      <trkpt lat="44.83081" lon="6.71994">
        <ele>2180.91</ele>
        <time>2014-02-25T09:17:03Z</time>
      </trkpt>
      <trkpt lat="44.83072" lon="6.71971">
        <ele>2181</ele>
        <time>2014-02-25T09:17:34Z</time>
      </trkpt>
      <trkpt lat="44.8307" lon="6.71946">
        <ele>2182.88</ele>
        <time>2014-02-25T09:17:51Z</time>
      </trkpt>
      <trkpt lat="44.83066" lon="6.71921">
        <ele>2182.93</ele>
        <time>2014-02-25T09:18:10Z</time>
      </trkpt>
      <trkpt lat="44.83062" lon="6.71897">
        <ele>2183.07</ele>
        <time>2014-02-25T09:18:28Z</time>
      </trkpt>
      <trkpt lat="44.83059" lon="6.71871">
        <ele>2183.82</ele>
        <time>2014-02-25T09:18:47Z</time>
      </trkpt>
      <trkpt lat="44.83059" lon="6.71845">
        <ele>2185.7</ele>
        <time>2014-02-25T09:19:07Z</time>
      </trkpt>
      <trkpt lat="44.83054" lon="6.71819">
        <ele>2184.57</ele>
        <time>2014-02-25T09:19:26Z</time>
      </trkpt>
      <trkpt lat="44.83049" lon="6.71795">
        <ele>2182.58</ele>
        <time>2014-02-25T09:19:44Z</time>
      </trkpt>
      <trkpt lat="44.83043" lon="6.71771">
        <ele>2183.89</ele>
        <time>2014-02-25T09:20:01Z</time>
      </trkpt>
      <trkpt lat="44.83032" lon="6.7175">
        <ele>2183.19</ele>
        <time>2014-02-25T09:20:18Z</time>
      </trkpt>
      <trkpt lat="44.83023" lon="6.71728">
        <ele>2187.68</ele>
        <time>2014-02-25T09:20:37Z</time>
      </trkpt>
      <trkpt lat="44.83016" lon="6.71703">
        <ele>2186.48</ele>
        <time>2014-02-25T09:20:58Z</time>
      </trkpt>
      <trkpt lat="44.83012" lon="6.71678">
        <ele>2190.57</ele>
        <time>2014-02-25T09:21:19Z</time>
      </trkpt>
      <trkpt lat="44.83005" lon="6.71655">
        <ele>2194.65</ele>
        <time>2014-02-25T09:21:41Z</time>
      </trkpt>
      <trkpt lat="44.82996" lon="6.71632">
        <ele>2194.76</ele>
        <time>2014-02-25T09:22:01Z</time>
      </trkpt>
      <trkpt lat="44.8299" lon="6.71606">
        <ele>2195.32</ele>
        <time>2014-02-25T09:22:14Z</time>
      </trkpt>
      <trkpt lat="44.82985" lon="6.71582">
        <ele>2196.7</ele>
        <time>2014-02-25T09:22:29Z</time>
      </trkpt>
      <trkpt lat="44.8298" lon="6.71557">
        <ele>2194.3</ele>
        <time>2014-02-25T09:22:46Z</time>
      </trkpt>
      <trkpt lat="44.82975" lon="6.71532">
        <ele>2190.38</ele>
        <time>2014-02-25T09:23:04Z</time>
      </trkpt>
      <trkpt lat="44.82969" lon="6.71506">
        <ele>2191.33</ele>
        <time>2014-02-25T09:23:20Z</time>
      </trkpt>
      <trkpt lat="44.82962" lon="6.71482">
        <ele>2191.48</ele>
        <time>2014-02-25T09:23:37Z</time>
      </trkpt>
      <trkpt lat="44.82957" lon="6.71457">
        <ele>2193.43</ele>
        <time>2014-02-25T09:23:56Z</time>
      </trkpt>
      <trkpt lat="44.82957" lon="6.71431">
        <ele>2193.21</ele>
        <time>2014-02-25T09:24:13Z</time>
      </trkpt>
      <trkpt lat="44.82957" lon="6.71405">
        <ele>2194.91</ele>
        <time>2014-02-25T09:24:31Z</time>
      </trkpt>
      <trkpt lat="44.82958" lon="6.71379">
        <ele>2197.71</ele>
        <time>2014-02-25T09:24:52Z</time>
      </trkpt>
      <trkpt lat="44.82958" lon="6.71353">
        <ele>2202.37</ele>
        <time>2014-02-25T09:25:15Z</time>
      </trkpt>
      <trkpt lat="44.82951" lon="6.71329">
        <ele>2204.41</ele>
        <time>2014-02-25T09:25:38Z</time>
      </trkpt>
      <trkpt lat="44.8295" lon="6.71303">
        <ele>2207.5</ele>
        <time>2014-02-25T09:26:00Z</time>
      </trkpt>
      <trkpt lat="44.82954" lon="6.71278">
        <ele>2208.45</ele>
        <time>2014-02-25T09:26:26Z</time>
      </trkpt>
      <trkpt lat="44.82954" lon="6.71253">
        <ele>2210.95</ele>
        <time>2014-02-25T09:26:50Z</time>
      </trkpt>
      <trkpt lat="44.8296" lon="6.71229">
        <ele>2218.38</ele>
        <time>2014-02-25T09:27:17Z</time>
      </trkpt>
      <trkpt lat="44.82958" lon="6.71203">
        <ele>2223.18</ele>
        <time>2014-02-25T09:28:01Z</time>
      </trkpt>
      <trkpt lat="44.82951" lon="6.71179">
        <ele>2226.44</ele>
        <time>2014-02-25T09:28:30Z</time>
      </trkpt>
      <trkpt lat="44.82942" lon="6.71157">
        <ele>2230.39</ele>
        <time>2014-02-25T09:28:59Z</time>
      </trkpt>
      <trkpt lat="44.82927" lon="6.71141">
        <ele>2235.97</ele>
        <time>2014-02-25T09:29:25Z</time>
      </trkpt>
      <trkpt lat="44.82918" lon="6.71119">
        <ele>2242.38</ele>
        <time>2014-02-25T09:29:54Z</time>
      </trkpt>
      <trkpt lat="44.82921" lon="6.71093">
        <ele>2246.49</ele>
        <time>2014-02-25T09:30:26Z</time>
      </trkpt>
      <trkpt lat="44.82914" lon="6.71069">
        <ele>2256.46</ele>
        <time>2014-02-25T09:31:14Z</time>
      </trkpt>
      <trkpt lat="44.829" lon="6.71054">
        <ele>2255.33</ele>
        <time>2014-02-25T09:31:41Z</time>
      </trkpt>
      <trkpt lat="44.82888" lon="6.71035">
        <ele>2257.93</ele>
        <time>2014-02-25T09:32:08Z</time>
      </trkpt>
      <trkpt lat="44.82877" lon="6.71014">
        <ele>2264.65</ele>
        <time>2014-02-25T09:32:39Z</time>
      </trkpt>
      <trkpt lat="44.82864" lon="6.70997">
        <ele>2271.23</ele>
        <time>2014-02-25T09:33:14Z</time>
      </trkpt>
      <trkpt lat="44.82859" lon="6.70972">
        <ele>2275.85</ele>
        <time>2014-02-25T09:33:50Z</time>
      </trkpt>
      <trkpt lat="44.82861" lon="6.70947">
        <ele>2289.36</ele>
        <time>2014-02-25T09:34:21Z</time>
      </trkpt>
      <trkpt lat="44.82854" lon="6.70923">
        <ele>2300.33</ele>
        <time>2014-02-25T09:35:21Z</time>
      </trkpt>
      <trkpt lat="44.8285" lon="6.70898">
        <ele>2306.58</ele>
        <time>2014-02-25T09:35:56Z</time>
      </trkpt>
      <trkpt lat="44.82843" lon="6.70874">
        <ele>2311.36</ele>
        <time>2014-02-25T09:36:30Z</time>
      </trkpt>
      <trkpt lat="44.82842" lon="6.70849">
        <ele>2319.38</ele>
        <time>2014-02-25T09:37:43Z</time>
      </trkpt>
      <trkpt lat="44.82834" lon="6.70825">
        <ele>2318.57</ele>
        <time>2014-02-25T09:39:17Z</time>
      </trkpt>
      <trkpt lat="44.82829" lon="6.708">
        <ele>2323.94</ele>
        <time>2014-02-25T09:39:43Z</time>
      </trkpt>
      <trkpt lat="44.82826" lon="6.70774">
        <ele>2324.57</ele>
        <time>2014-02-25T09:40:04Z</time>
      </trkpt>
      <trkpt lat="44.82825" lon="6.70749">
        <ele>2330.8</ele>
        <time>2014-02-25T09:40:28Z</time>
      </trkpt>
      <trkpt lat="44.82825" lon="6.70723">
        <ele>2335.38</ele>
        <time>2014-02-25T09:40:53Z</time>
      </trkpt>
      <trkpt lat="44.82832" lon="6.70699">
        <ele>2336.69</ele>
        <time>2014-02-25T09:41:14Z</time>
      </trkpt>
      <trkpt lat="44.82841" lon="6.70676">
        <ele>2340.67</ele>
        <time>2014-02-25T09:41:36Z</time>
      </trkpt>
      <trkpt lat="44.82843" lon="6.7065">
        <ele>2346.44</ele>
        <time>2014-02-25T09:46:15Z</time>
      </trkpt>
      <trkpt lat="44.82841" lon="6.70625">
        <ele>2343.93</ele>
        <time>2014-02-25T09:46:39Z</time>
      </trkpt>
      <trkpt lat="44.8285" lon="6.70603">
        <ele>2347.62</ele>
        <time>2014-02-25T09:47:06Z</time>
      </trkpt>
      <trkpt lat="44.8286" lon="6.70581">
        <ele>2351.44</ele>
        <time>2014-02-25T09:47:37Z</time>
      </trkpt>
      <trkpt lat="44.82873" lon="6.70563">
        <ele>2355.35</ele>
        <time>2014-02-25T09:48:05Z</time>
      </trkpt>
      <trkpt lat="44.82885" lon="6.70543">
        <ele>2357.38</ele>
        <time>2014-02-25T09:48:36Z</time>
      </trkpt>
      <trkpt lat="44.82896" lon="6.70523">
        <ele>2364.24</ele>
        <time>2014-02-25T09:49:11Z</time>
      </trkpt>
      <trkpt lat="44.82913" lon="6.70534">
        <ele>2371.38</ele>
        <time>2014-02-25T09:50:04Z</time>
      </trkpt>
      <trkpt lat="44.82928" lon="6.70548">
        <ele>2379.38</ele>
        <time>2014-02-25T09:50:40Z</time>
      </trkpt>
      <trkpt lat="44.82939" lon="6.70568">
        <ele>2385.32</ele>
        <time>2014-02-25T09:51:16Z</time>
      </trkpt>
      <trkpt lat="44.82951" lon="6.70549">
        <ele>2393.21</ele>
        <time>2014-02-25T09:53:06Z</time>
      </trkpt>
      <trkpt lat="44.82955" lon="6.70523">
        <ele>2403.12</ele>
        <time>2014-02-25T09:53:39Z</time>
      </trkpt>
      <trkpt lat="44.82966" lon="6.70504">
        <ele>2412.32</ele>
        <time>2014-02-25T09:54:14Z</time>
      </trkpt>
      <trkpt lat="44.82985" lon="6.70504">
        <ele>2413.87</ele>
        <time>2014-02-25T09:54:50Z</time>
      </trkpt>
      <trkpt lat="44.83003" lon="6.70502">
        <ele>2418.61</ele>
        <time>2014-02-25T09:55:37Z</time>
      </trkpt>
      <trkpt lat="44.83015" lon="6.70484">
        <ele>2423.09</ele>
        <time>2014-02-25T09:56:09Z</time>
      </trkpt>
      <trkpt lat="44.83025" lon="6.70462">
        <ele>2428.87</ele>
        <time>2014-02-25T09:56:43Z</time>
      </trkpt>
      <trkpt lat="44.83035" lon="6.7044">
        <ele>2434.25</ele>
        <time>2014-02-25T09:57:15Z</time>
      </trkpt>
      <trkpt lat="44.83039" lon="6.70415">
        <ele>2442.12</ele>
        <time>2014-02-25T09:57:46Z</time>
      </trkpt>
      <trkpt lat="44.83048" lon="6.70392">
        <ele>2447.39</ele>
        <time>2014-02-25T09:58:17Z</time>
      </trkpt>
      <trkpt lat="44.83056" lon="6.70369">
        <ele>2450.32</ele>
        <time>2014-02-25T09:58:42Z</time>
      </trkpt>
      <trkpt lat="44.83063" lon="6.70345">
        <ele>2453.38</ele>
        <time>2014-02-25T09:59:12Z</time>
      </trkpt>
      <trkpt lat="44.83067" lon="6.70321">
        <ele>2459.83</ele>
        <time>2014-02-25T09:59:40Z</time>
      </trkpt>
      <trkpt lat="44.83083" lon="6.70307">
        <ele>2462.62</ele>
        <time>2014-02-25T10:00:08Z</time>
      </trkpt>
      <trkpt lat="44.83099" lon="6.70296">
        <ele>2461.86</ele>
        <time>2014-02-25T10:00:28Z</time>
      </trkpt>
      <trkpt lat="44.83115" lon="6.70283">
        <ele>2461.48</ele>
        <time>2014-02-25T10:00:48Z</time>
      </trkpt>
      <trkpt lat="44.8313" lon="6.70268">
        <ele>2461.47</ele>
        <time>2014-02-25T10:01:12Z</time>
      </trkpt>
      <trkpt lat="44.83148" lon="6.70269">
        <ele>2472.6</ele>
        <time>2014-02-25T10:01:49Z</time>
      </trkpt>
      <trkpt lat="44.83162" lon="6.70252">
        <ele>2478.01</ele>
        <time>2014-02-25T10:03:00Z</time>
      </trkpt>
      <trkpt lat="44.83172" lon="6.7023">
        <ele>2484.99</ele>
        <time>2014-02-25T10:03:28Z</time>
      </trkpt>
      <trkpt lat="44.83184" lon="6.70249">
        <ele>2502.16</ele>
        <time>2014-02-25T10:21:19Z</time>
      </trkpt>
      <trkpt lat="44.83195" lon="6.7027">
        <ele>2510.86</ele>
        <time>2014-02-25T10:22:29Z</time>
      </trkpt>
      <trkpt lat="44.83204" lon="6.70247">
        <ele>2512.16</ele>
        <time>2014-02-25T10:23:16Z</time>
      </trkpt>
      <trkpt lat="44.83217" lon="6.7023">
        <ele>2516.87</ele>
        <time>2014-02-25T10:24:06Z</time>
      </trkpt>
      <trkpt lat="44.83232" lon="6.70214">
        <ele>2523.3</ele>
        <time>2014-02-25T10:24:54Z</time>
      </trkpt>
      <trkpt lat="44.83246" lon="6.70198">
        <ele>2523.65</ele>
        <time>2014-02-25T10:25:23Z</time>
      </trkpt>
      <trkpt lat="44.83255" lon="6.70176">
        <ele>2527.54</ele>
        <time>2014-02-25T10:26:14Z</time>
      </trkpt>
      <trkpt lat="44.83259" lon="6.70151">
        <ele>2536.41</ele>
        <time>2014-02-25T10:28:06Z</time>
      </trkpt>
      <trkpt lat="44.83274" lon="6.70167">
        <ele>2535.58</ele>
        <time>2014-02-25T10:28:51Z</time>
      </trkpt>
      <trkpt lat="44.83272" lon="6.70141">
        <ele>2544.31</ele>
        <time>2014-02-25T10:29:43Z</time>
      </trkpt>
      <trkpt lat="44.83268" lon="6.70116">
        <ele>2554.27</ele>
        <time>2014-02-25T10:30:10Z</time>
      </trkpt>
      <trkpt lat="44.83257" lon="6.70095">
        <ele>2561.95</ele>
        <time>2014-02-25T10:30:42Z</time>
      </trkpt>
      <trkpt lat="44.83271" lon="6.70079">
        <ele>2544.55</ele>
        <time>2014-02-25T10:33:38Z</time>
      </trkpt>
      <trkpt lat="44.83288" lon="6.70071">
        <ele>2572.91</ele>
        <time>2014-02-25T10:34:13Z</time>
      </trkpt>
      <trkpt lat="44.83305" lon="6.70061">
        <ele>2577.32</ele>
        <time>2014-02-25T10:34:44Z</time>
      </trkpt>
      <trkpt lat="44.83322" lon="6.70056">
        <ele>2581.25</ele>
        <time>2014-02-25T10:35:09Z</time>
      </trkpt>
      <trkpt lat="44.8334" lon="6.70047">
        <ele>2583.92</ele>
        <time>2014-02-25T10:35:38Z</time>
      </trkpt>
      <trkpt lat="44.83356" lon="6.70038">
        <ele>2588.45</ele>
        <time>2014-02-25T10:36:14Z</time>
      </trkpt>
      <trkpt lat="44.83375" lon="6.70033">
        <ele>2589.35</ele>
        <time>2014-02-25T10:36:41Z</time>
      </trkpt>
      <trkpt lat="44.83389" lon="6.70018">
        <ele>2601.79</ele>
        <time>2014-02-25T10:37:17Z</time>
      </trkpt>
      <trkpt lat="44.83402" lon="6.7">
        <ele>2610.32</ele>
        <time>2014-02-25T10:37:57Z</time>
      </trkpt>
      <trkpt lat="44.83407" lon="6.70025">
        <ele>2608.13</ele>
        <time>2014-02-25T10:52:36Z</time>
      </trkpt>
      <trkpt lat="44.83425" lon="6.70036">
        <ele>2603.76</ele>
        <time>2014-02-25T10:52:43Z</time>
      </trkpt>
      <trkpt lat="44.83441" lon="6.70048">
        <ele>2601.6</ele>
        <time>2014-02-25T10:52:53Z</time>
      </trkpt>
      <trkpt lat="44.83436" lon="6.70022">
        <ele>2594.47</ele>
        <time>2014-02-25T10:53:02Z</time>
      </trkpt>
      <trkpt lat="44.83439" lon="6.69994">
        <ele>2585.43</ele>
        <time>2014-02-25T10:53:16Z</time>
      </trkpt>
      <trkpt lat="44.83457" lon="6.69981">
        <ele>2580.3</ele>
        <time>2014-02-25T10:53:25Z</time>
      </trkpt>
      <trkpt lat="44.83469" lon="6.69962">
        <ele>2565.47</ele>
        <time>2014-02-25T10:53:43Z</time>
      </trkpt>
      <trkpt lat="44.83487" lon="6.69955">
        <ele>2558.14</ele>
        <time>2014-02-25T10:53:51Z</time>
      </trkpt>
      <trkpt lat="44.83503" lon="6.6994">
        <ele>2549.66</ele>
        <time>2014-02-25T10:54:00Z</time>
      </trkpt>
      <trkpt lat="44.83522" lon="6.69932">
        <ele>2539.67</ele>
        <time>2014-02-25T10:54:08Z</time>
      </trkpt>
      <trkpt lat="44.83538" lon="6.69917">
        <ele>2533.62</ele>
        <time>2014-02-25T10:54:14Z</time>
      </trkpt>
      <trkpt lat="44.83558" lon="6.69913">
        <ele>2526.2</ele>
        <time>2014-02-25T10:54:20Z</time>
      </trkpt>
      <trkpt lat="44.83576" lon="6.69917">
        <ele>2520.56</ele>
        <time>2014-02-25T10:54:25Z</time>
      </trkpt>
      <trkpt lat="44.83592" lon="6.69904">
        <ele>2508.4</ele>
        <time>2014-02-25T10:54:55Z</time>
      </trkpt>
      <trkpt lat="44.83611" lon="6.69906">
        <ele>2496.5</ele>
        <time>2014-02-25T10:55:07Z</time>
      </trkpt>
      <trkpt lat="44.83623" lon="6.69924">
        <ele>2529.68</ele>
        <time>2014-02-25T10:55:17Z</time>
      </trkpt>
      <trkpt lat="44.83638" lon="6.69941">
        <ele>2485.69</ele>
        <time>2014-02-25T10:55:24Z</time>
      </trkpt>
      <trkpt lat="44.83652" lon="6.69962">
        <ele>2472.34</ele>
        <time>2014-02-25T10:55:30Z</time>
      </trkpt>
      <trkpt lat="44.83667" lon="6.69977">
        <ele>2460.41</ele>
        <time>2014-02-25T10:55:37Z</time>
      </trkpt>
      <trkpt lat="44.83678" lon="6.69997">
        <ele>2450.1</ele>
        <time>2014-02-25T10:55:43Z</time>
      </trkpt>
      <trkpt lat="44.83698" lon="6.70008">
        <ele>2436.79</ele>
        <time>2014-02-25T10:55:50Z</time>
      </trkpt>
      <trkpt lat="44.83719" lon="6.70014">
        <ele>2418.56</ele>
        <time>2014-02-25T10:55:57Z</time>
      </trkpt>
      <trkpt lat="44.83738" lon="6.70009">
        <ele>2411.01</ele>
        <time>2014-02-25T10:56:04Z</time>
      </trkpt>
      <trkpt lat="44.83758" lon="6.70009">
        <ele>2402.6</ele>
        <time>2014-02-25T10:56:11Z</time>
      </trkpt>
      <trkpt lat="44.83779" lon="6.70014">
        <ele>2394.14</ele>
        <time>2014-02-25T10:56:17Z</time>
      </trkpt>
      <trkpt lat="44.83802" lon="6.70018">
        <ele>2384.69</ele>
        <time>2014-02-25T10:56:22Z</time>
      </trkpt>
      <trkpt lat="44.83824" lon="6.70013">
        <ele>2382.9</ele>
        <time>2014-02-25T10:56:26Z</time>
      </trkpt>
      <trkpt lat="44.83847" lon="6.70016">
        <ele>2378.5</ele>
        <time>2014-02-25T10:56:29Z</time>
      </trkpt>
      <trkpt lat="44.83867" lon="6.70019">
        <ele>2371.08</ele>
        <time>2014-02-25T10:56:32Z</time>
      </trkpt>
      <trkpt lat="44.8389" lon="6.70025">
        <ele>2369.77</ele>
        <time>2014-02-25T10:56:35Z</time>
      </trkpt>
      <trkpt lat="44.83908" lon="6.70028">
        <ele>2365.83</ele>
        <time>2014-02-25T10:56:44Z</time>
      </trkpt>
      <trkpt lat="44.83925" lon="6.70036">
        <ele>2356.19</ele>
        <time>2014-02-25T11:01:56Z</time>
      </trkpt>
      <trkpt lat="44.83934" lon="6.70059">
        <ele>2350.35</ele>
        <time>2014-02-25T11:02:32Z</time>
      </trkpt>
      <trkpt lat="44.83953" lon="6.70055">
        <ele>2353.85</ele>
        <time>2014-02-25T11:02:40Z</time>
      </trkpt>
      <trkpt lat="44.83971" lon="6.70055">
        <ele>2354.9</ele>
        <time>2014-02-25T11:02:52Z</time>
      </trkpt>
      <trkpt lat="44.83989" lon="6.70038">
        <ele>2355.06</ele>
        <time>2014-02-25T11:03:01Z</time>
      </trkpt>
      <trkpt lat="44.84004" lon="6.70054">
        <ele>2352.17</ele>
        <time>2014-02-25T11:03:44Z</time>
      </trkpt>
      <trkpt lat="44.8402" lon="6.70065">
        <ele>2345.09</ele>
        <time>2014-02-25T11:06:11Z</time>
      </trkpt>
      <trkpt lat="44.84036" lon="6.7008">
        <ele>2346.51</ele>
        <time>2014-02-25T11:30:08Z</time>
      </trkpt>
      <trkpt lat="44.84057" lon="6.70092">
        <ele>2343.33</ele>
        <time>2014-02-25T11:30:15Z</time>
      </trkpt>
      <trkpt lat="44.84074" lon="6.70105">
        <ele>2341.31</ele>
        <time>2014-02-25T11:30:18Z</time>
      </trkpt>
      <trkpt lat="44.84092" lon="6.70115">
        <ele>2342.87</ele>
        <time>2014-02-25T11:30:22Z</time>
      </trkpt>
      <trkpt lat="44.84104" lon="6.70138">
        <ele>2343.16</ele>
        <time>2014-02-25T11:30:26Z</time>
      </trkpt>
      <trkpt lat="44.84117" lon="6.70161">
        <ele>2341.55</ele>
        <time>2014-02-25T11:30:30Z</time>
      </trkpt>
      <trkpt lat="44.84136" lon="6.7017">
        <ele>2341.01</ele>
        <time>2014-02-25T11:30:34Z</time>
      </trkpt>
      <trkpt lat="44.84156" lon="6.70172">
        <ele>2341.46</ele>
        <time>2014-02-25T11:30:41Z</time>
      </trkpt>
      <trkpt lat="44.84176" lon="6.70174">
        <ele>2340.32</ele>
        <time>2014-02-25T11:30:51Z</time>
      </trkpt>
      <trkpt lat="44.84194" lon="6.70183">
        <ele>2338.02</ele>
        <time>2014-02-25T11:31:00Z</time>
      </trkpt>
      <trkpt lat="44.84209" lon="6.70198">
        <ele>2331.37</ele>
        <time>2014-02-25T11:31:05Z</time>
      </trkpt>
      <trkpt lat="44.84225" lon="6.70209">
        <ele>2328.94</ele>
        <time>2014-02-25T11:31:09Z</time>
      </trkpt>
      <trkpt lat="44.84247" lon="6.70213">
        <ele>2328.48</ele>
        <time>2014-02-25T11:31:13Z</time>
      </trkpt>
      <trkpt lat="44.84265" lon="6.70199">
        <ele>2328.2</ele>
        <time>2014-02-25T11:31:17Z</time>
      </trkpt>
      <trkpt lat="44.84287" lon="6.70194">
        <ele>2329.82</ele>
        <time>2014-02-25T11:31:23Z</time>
      </trkpt>
      <trkpt lat="44.84305" lon="6.7018">
        <ele>2327.78</ele>
        <time>2014-02-25T11:31:27Z</time>
      </trkpt>
      <trkpt lat="44.84326" lon="6.70175">
        <ele>2325.58</ele>
        <time>2014-02-25T11:31:32Z</time>
      </trkpt>
      <trkpt lat="44.84347" lon="6.70171">
        <ele>2324.7</ele>
        <time>2014-02-25T11:31:36Z</time>
      </trkpt>
      <trkpt lat="44.84368" lon="6.7017">
        <ele>2324.27</ele>
        <time>2014-02-25T11:31:40Z</time>
      </trkpt>
      <trkpt lat="44.84387" lon="6.70173">
        <ele>2323.6</ele>
        <time>2014-02-25T11:31:45Z</time>
      </trkpt>
      <trkpt lat="44.84392" lon="6.70198">
        <ele>2327.01</ele>
        <time>2014-02-25T11:33:08Z</time>
      </trkpt>
      <trkpt lat="44.84382" lon="6.70221">
        <ele>2323.68</ele>
        <time>2014-02-25T11:33:13Z</time>
      </trkpt>
      <trkpt lat="44.84383" lon="6.70247">
        <ele>2320.49</ele>
        <time>2014-02-25T11:33:20Z</time>
      </trkpt>
      <trkpt lat="44.84394" lon="6.70271">
        <ele>2315.51</ele>
        <time>2014-02-25T11:33:24Z</time>
      </trkpt>
      <trkpt lat="44.84414" lon="6.7028">
        <ele>2308.02</ele>
        <time>2014-02-25T11:33:30Z</time>
      </trkpt>
      <trkpt lat="44.8443" lon="6.7029">
        <ele>2302.46</ele>
        <time>2014-02-25T11:33:35Z</time>
      </trkpt>
      <trkpt lat="44.84449" lon="6.70304">
        <ele>2295.76</ele>
        <time>2014-02-25T11:33:39Z</time>
      </trkpt>
      <trkpt lat="44.84469" lon="6.70312">
        <ele>2291.23</ele>
        <time>2014-02-25T11:33:42Z</time>
      </trkpt>
      <trkpt lat="44.84491" lon="6.70318">
        <ele>2284.79</ele>
        <time>2014-02-25T11:33:45Z</time>
      </trkpt>
      <trkpt lat="44.84511" lon="6.70318">
        <ele>2280.49</ele>
        <time>2014-02-25T11:33:48Z</time>
      </trkpt>
      <trkpt lat="44.8453" lon="6.70322">
        <ele>2277.19</ele>
        <time>2014-02-25T11:34:21Z</time>
      </trkpt>
      <trkpt lat="44.84555" lon="6.70322">
        <ele>2273.78</ele>
        <time>2014-02-25T11:34:26Z</time>
      </trkpt>
      <trkpt lat="44.84578" lon="6.70319">
        <ele>2270.22</ele>
        <time>2014-02-25T11:34:30Z</time>
      </trkpt>
      <trkpt lat="44.84599" lon="6.70324">
        <ele>2267.78</ele>
        <time>2014-02-25T11:34:35Z</time>
      </trkpt>
      <trkpt lat="44.84619" lon="6.70326">
        <ele>2266.58</ele>
        <time>2014-02-25T11:34:40Z</time>
      </trkpt>
      <trkpt lat="44.84639" lon="6.7033">
        <ele>2264.1</ele>
        <time>2014-02-25T11:34:47Z</time>
      </trkpt>
      <trkpt lat="44.84661" lon="6.70331">
        <ele>2259.86</ele>
        <time>2014-02-25T11:34:51Z</time>
      </trkpt>
      <trkpt lat="44.84682" lon="6.70334">
        <ele>2255.87</ele>
        <time>2014-02-25T11:34:54Z</time>
      </trkpt>
      <trkpt lat="44.84704" lon="6.70338">
        <ele>2252.22</ele>
        <time>2014-02-25T11:34:58Z</time>
      </trkpt>
      <trkpt lat="44.84722" lon="6.70341">
        <ele>2250.08</ele>
        <time>2014-02-25T11:35:06Z</time>
      </trkpt>
      <trkpt lat="44.84742" lon="6.70346">
        <ele>2246.61</ele>
        <time>2014-02-25T11:35:14Z</time>
      </trkpt>
      <trkpt lat="44.84761" lon="6.70349">
        <ele>2243.47</ele>
        <time>2014-02-25T11:35:17Z</time>
      </trkpt>
      <trkpt lat="44.8478" lon="6.70352">
        <ele>2240.95</ele>
        <time>2014-02-25T11:35:20Z</time>
      </trkpt>
      <trkpt lat="44.848" lon="6.70347">
        <ele>2238.55</ele>
        <time>2014-02-25T11:35:25Z</time>
      </trkpt>
      <trkpt lat="44.84817" lon="6.70356">
        <ele>2241.19</ele>
        <time>2014-02-25T11:35:53Z</time>
      </trkpt>
      <trkpt lat="44.84831" lon="6.70372">
        <ele>2240.08</ele>
        <time>2014-02-25T11:47:31Z</time>
      </trkpt>
      <trkpt lat="44.84849" lon="6.7038">
        <ele>2237.01</ele>
        <time>2014-02-25T11:47:50Z</time>
      </trkpt>
      <trkpt lat="44.84863" lon="6.70397">
        <ele>2241.43</ele>
        <time>2014-02-25T11:48:16Z</time>
      </trkpt>
      <trkpt lat="44.84879" lon="6.70406">
        <ele>2243.35</ele>
        <time>2014-02-25T11:48:45Z</time>
      </trkpt>
      <trkpt lat="44.84895" lon="6.70418">
        <ele>2246.55</ele>
        <time>2014-02-25T11:49:10Z</time>
      </trkpt>
      <trkpt lat="44.84913" lon="6.70424">
        <ele>2244.22</ele>
        <time>2014-02-25T11:49:34Z</time>
      </trkpt>
      <trkpt lat="44.84928" lon="6.7044">
        <ele>2244.1</ele>
        <time>2014-02-25T11:50:03Z</time>
      </trkpt>
      <trkpt lat="44.84946" lon="6.70439">
        <ele>2251.3</ele>
        <time>2014-02-25T11:50:26Z</time>
      </trkpt>
      <trkpt lat="44.84963" lon="6.70449">
        <ele>2253.38</ele>
        <time>2014-02-25T11:50:52Z</time>
      </trkpt>
      <trkpt lat="44.84982" lon="6.7045">
        <ele>2259.69</ele>
        <time>2014-02-25T11:51:17Z</time>
      </trkpt>
      <trkpt lat="44.84999" lon="6.70456">
        <ele>2261.87</ele>
        <time>2014-02-25T11:51:38Z</time>
      </trkpt>
      <trkpt lat="44.85013" lon="6.70472">
        <ele>2266.25</ele>
        <time>2014-02-25T11:51:59Z</time>
      </trkpt>
      <trkpt lat="44.85029" lon="6.70486">
        <ele>2266.34</ele>
        <time>2014-02-25T11:52:23Z</time>
      </trkpt>
      <trkpt lat="44.85047" lon="6.70484">
        <ele>2266.52</ele>
        <time>2014-02-25T11:52:46Z</time>
      </trkpt>
      <trkpt lat="44.85065" lon="6.70489">
        <ele>2264.62</ele>
        <time>2014-02-25T11:53:06Z</time>
      </trkpt>
      <trkpt lat="44.85083" lon="6.70494">
        <ele>2271.56</ele>
        <time>2014-02-25T11:53:45Z</time>
      </trkpt>
      <trkpt lat="44.85095" lon="6.70513">
        <ele>2272.8</ele>
        <time>2014-02-25T11:54:09Z</time>
      </trkpt>
      <trkpt lat="44.85109" lon="6.70529">
        <ele>2276.05</ele>
        <time>2014-02-25T11:54:33Z</time>
      </trkpt>
      <trkpt lat="44.85125" lon="6.70542">
        <ele>2276.46</ele>
        <time>2014-02-25T11:54:55Z</time>
      </trkpt>
      <trkpt lat="44.85143" lon="6.70549">
        <ele>2277.18</ele>
        <time>2014-02-25T11:55:14Z</time>
      </trkpt>
      <trkpt lat="44.85159" lon="6.70561">
        <ele>2282.42</ele>
        <time>2014-02-25T11:55:36Z</time>
      </trkpt>
      <trkpt lat="44.85177" lon="6.70564">
        <ele>2286.32</ele>
        <time>2014-02-25T11:56:01Z</time>
      </trkpt>
      <trkpt lat="44.85192" lon="6.70579">
        <ele>2289.07</ele>
        <time>2014-02-25T11:56:22Z</time>
      </trkpt>
      <trkpt lat="44.85175" lon="6.70589">
        <ele>2302.38</ele>
        <time>2014-02-25T11:57:57Z</time>
      </trkpt>
      <trkpt lat="44.85167" lon="6.70612">
        <ele>2307.66</ele>
        <time>2014-02-25T11:58:49Z</time>
      </trkpt>
      <trkpt lat="44.85169" lon="6.70639">
        <ele>2310.62</ele>
        <time>2014-02-25T11:59:20Z</time>
      </trkpt>
      <trkpt lat="44.85169" lon="6.70664">
        <ele>2318.39</ele>
        <time>2014-02-25T11:59:51Z</time>
      </trkpt>
      <trkpt lat="44.85162" lon="6.70688">
        <ele>2322.43</ele>
        <time>2014-02-25T12:01:06Z</time>
      </trkpt>
      <trkpt lat="44.85145" lon="6.70678">
        <ele>2330.16</ele>
        <time>2014-02-25T12:01:38Z</time>
      </trkpt>
      <trkpt lat="44.85141" lon="6.70704">
        <ele>2336.38</ele>
        <time>2014-02-25T12:02:23Z</time>
      </trkpt>
      <trkpt lat="44.85125" lon="6.70716">
        <ele>2341.44</ele>
        <time>2014-02-25T12:04:22Z</time>
      </trkpt>
      <trkpt lat="44.8511" lon="6.70731">
        <ele>2343.44</ele>
        <time>2014-02-25T12:04:49Z</time>
      </trkpt>
      <trkpt lat="44.85095" lon="6.70745">
        <ele>2350.39</ele>
        <time>2014-02-25T12:05:18Z</time>
      </trkpt>
      <trkpt lat="44.85079" lon="6.70758">
        <ele>2356.32</ele>
        <time>2014-02-25T12:05:49Z</time>
      </trkpt>
      <trkpt lat="44.85065" lon="6.70775">
        <ele>2365.19</ele>
        <time>2014-02-25T12:06:20Z</time>
      </trkpt>
      <trkpt lat="44.85047" lon="6.70775">
        <ele>2367.93</ele>
        <time>2014-02-25T12:06:49Z</time>
      </trkpt>
      <trkpt lat="44.85029" lon="6.70769">
        <ele>2371.45</ele>
        <time>2014-02-25T12:07:31Z</time>
      </trkpt>
      <trkpt lat="44.85012" lon="6.7076">
        <ele>2377.44</ele>
        <time>2014-02-25T12:08:00Z</time>
      </trkpt>
      <trkpt lat="44.84994" lon="6.70752">
        <ele>2385.94</ele>
        <time>2014-02-25T12:08:34Z</time>
      </trkpt>
      <trkpt lat="44.84976" lon="6.70748">
        <ele>2392.18</ele>
        <time>2014-02-25T12:09:09Z</time>
      </trkpt>
      <trkpt lat="44.84958" lon="6.70743">
        <ele>2396.94</ele>
        <time>2014-02-25T12:09:42Z</time>
      </trkpt>
      <trkpt lat="44.84942" lon="6.70731">
        <ele>2403.3</ele>
        <time>2014-02-25T12:10:14Z</time>
      </trkpt>
      <trkpt lat="44.84926" lon="6.70719">
        <ele>2408.81</ele>
        <time>2014-02-25T12:10:47Z</time>
      </trkpt>
      <trkpt lat="44.84908" lon="6.70716">
        <ele>2413.57</ele>
        <time>2014-02-25T12:11:20Z</time>
      </trkpt>
      <trkpt lat="44.84889" lon="6.70718">
        <ele>2416.9</ele>
        <time>2014-02-25T12:12:01Z</time>
      </trkpt>
      <trkpt lat="44.84871" lon="6.70722">
        <ele>2419.43</ele>
        <time>2014-02-25T12:12:32Z</time>
      </trkpt>
      <trkpt lat="44.84852" lon="6.70725">
        <ele>2418.7</ele>
        <time>2014-02-25T12:12:52Z</time>
      </trkpt>
      <trkpt lat="44.84834" lon="6.70719">
        <ele>2419.44</ele>
        <time>2014-02-25T12:13:11Z</time>
      </trkpt>
      <trkpt lat="44.84816" lon="6.70717">
        <ele>2423.31</ele>
        <time>2014-02-25T12:13:33Z</time>
      </trkpt>
      <trkpt lat="44.84798" lon="6.70715">
        <ele>2426.31</ele>
        <time>2014-02-25T12:13:51Z</time>
      </trkpt>
      <trkpt lat="44.84779" lon="6.70712">
        <ele>2427.46</ele>
        <time>2014-02-25T12:14:10Z</time>
      </trkpt>
      <trkpt lat="44.8476" lon="6.7071">
        <ele>2423.73</ele>
        <time>2014-02-25T12:14:27Z</time>
      </trkpt>
      <trkpt lat="44.84741" lon="6.707">
        <ele>2414.43</ele>
        <time>2014-02-25T12:17:17Z</time>
      </trkpt>
      <trkpt lat="44.84725" lon="6.70689">
        <ele>2413.71</ele>
        <time>2014-02-25T12:17:31Z</time>
      </trkpt>
      <trkpt lat="44.84708" lon="6.70676">
        <ele>2413.54</ele>
        <time>2014-02-25T12:17:45Z</time>
      </trkpt>
      <trkpt lat="44.84692" lon="6.70667">
        <ele>2411.49</ele>
        <time>2014-02-25T12:18:00Z</time>
      </trkpt>
      <trkpt lat="44.84673" lon="6.7066">
        <ele>2410.69</ele>
        <time>2014-02-25T12:18:17Z</time>
      </trkpt>
      <trkpt lat="44.84655" lon="6.70654">
        <ele>2409.45</ele>
        <time>2014-02-25T12:18:37Z</time>
      </trkpt>
      <trkpt lat="44.84637" lon="6.70647">
        <ele>2406.01</ele>
        <time>2014-02-25T12:20:01Z</time>
      </trkpt>
      <trkpt lat="44.8462" lon="6.70641">
        <ele>2403.38</ele>
        <time>2014-02-25T12:20:22Z</time>
      </trkpt>
      <trkpt lat="44.84602" lon="6.70635">
        <ele>2400.45</ele>
        <time>2014-02-25T12:20:50Z</time>
      </trkpt>
      <trkpt lat="44.84584" lon="6.70634">
        <ele>2399.14</ele>
        <time>2014-02-25T12:21:13Z</time>
      </trkpt>
      <trkpt lat="44.84566" lon="6.70633">
        <ele>2393.07</ele>
        <time>2014-02-25T12:21:55Z</time>
      </trkpt>
      <trkpt lat="44.84547" lon="6.70631">
        <ele>2392.09</ele>
        <time>2014-02-25T12:22:16Z</time>
      </trkpt>
      <trkpt lat="44.84529" lon="6.70629">
        <ele>2394.42</ele>
        <time>2014-02-25T12:22:40Z</time>
      </trkpt>
      <trkpt lat="44.84511" lon="6.70633">
        <ele>2395.44</ele>
        <time>2014-02-25T12:23:09Z</time>
      </trkpt>
      <trkpt lat="44.84495" lon="6.70621">
        <ele>2408.84</ele>
        <time>2014-02-25T12:24:34Z</time>
      </trkpt>
      <trkpt lat="44.84477" lon="6.70621">
        <ele>2415.13</ele>
        <time>2014-02-25T12:25:16Z</time>
      </trkpt>
      <trkpt lat="44.84459" lon="6.70628">
        <ele>2421.41</ele>
        <time>2014-02-25T12:25:44Z</time>
      </trkpt>
      <trkpt lat="44.84442" lon="6.70639">
        <ele>2426.29</ele>
        <time>2014-02-25T12:26:20Z</time>
      </trkpt>
      <trkpt lat="44.84432" lon="6.70617">
        <ele>2443.23</ele>
        <time>2014-02-25T12:27:49Z</time>
      </trkpt>
      <trkpt lat="44.84414" lon="6.70621">
        <ele>2442.46</ele>
        <time>2014-02-25T12:28:23Z</time>
      </trkpt>
      <trkpt lat="44.84399" lon="6.70635">
        <ele>2448.15</ele>
        <time>2014-02-25T12:28:55Z</time>
      </trkpt>
      <trkpt lat="44.84398" lon="6.70609">
        <ele>2446.75</ele>
        <time>2014-02-25T12:29:52Z</time>
      </trkpt>
      <trkpt lat="44.84403" lon="6.70585">
        <ele>2465.41</ele>
        <time>2014-02-25T12:30:26Z</time>
      </trkpt>
      <trkpt lat="44.84413" lon="6.70563">
        <ele>2468.44</ele>
        <time>2014-02-25T12:30:59Z</time>
      </trkpt>
      <trkpt lat="44.84395" lon="6.70563">
        <ele>2470.44</ele>
        <time>2014-02-25T12:32:19Z</time>
      </trkpt>
      <trkpt lat="44.84378" lon="6.70575">
        <ele>2475.3</ele>
        <time>2014-02-25T12:32:56Z</time>
      </trkpt>
      <trkpt lat="44.84386" lon="6.706">
        <ele>2467.07</ele>
        <time>2014-02-25T12:46:23Z</time>
      </trkpt>
      <trkpt lat="44.844" lon="6.7062">
        <ele>2456.67</ele>
        <time>2014-02-25T12:46:29Z</time>
      </trkpt>
      <trkpt lat="44.84415" lon="6.70635">
        <ele>2445.08</ele>
        <time>2014-02-25T12:46:34Z</time>
      </trkpt>
      <trkpt lat="44.84429" lon="6.70657">
        <ele>2443.62</ele>
        <time>2014-02-25T12:46:39Z</time>
      </trkpt>
      <trkpt lat="44.84446" lon="6.7067">
        <ele>2428.18</ele>
        <time>2014-02-25T12:46:45Z</time>
      </trkpt>
      <trkpt lat="44.84464" lon="6.70683">
        <ele>2414.77</ele>
        <time>2014-02-25T12:46:51Z</time>
      </trkpt>
      <trkpt lat="44.84477" lon="6.70704">
        <ele>2406.13</ele>
        <time>2014-02-25T12:46:58Z</time>
      </trkpt>
      <trkpt lat="44.84491" lon="6.70722">
        <ele>2395.56</ele>
        <time>2014-02-25T12:47:04Z</time>
      </trkpt>
      <trkpt lat="44.84498" lon="6.70746">
        <ele>2388.91</ele>
        <time>2014-02-25T12:47:11Z</time>
      </trkpt>
      <trkpt lat="44.84513" lon="6.70763">
        <ele>2382.93</ele>
        <time>2014-02-25T12:47:18Z</time>
      </trkpt>
      <trkpt lat="44.84533" lon="6.70774">
        <ele>2374.23</ele>
        <time>2014-02-25T12:47:25Z</time>
      </trkpt>
      <trkpt lat="44.84548" lon="6.70787">
        <ele>2366.69</ele>
        <time>2014-02-25T12:47:30Z</time>
      </trkpt>
      <trkpt lat="44.84567" lon="6.70797">
        <ele>2360.39</ele>
        <time>2014-02-25T12:47:36Z</time>
      </trkpt>
      <trkpt lat="44.84585" lon="6.7081">
        <ele>2351.33</ele>
        <time>2014-02-25T12:47:42Z</time>
      </trkpt>
      <trkpt lat="44.84601" lon="6.70831">
        <ele>2339.91</ele>
        <time>2014-02-25T12:47:47Z</time>
      </trkpt>
      <trkpt lat="44.84607" lon="6.70857">
        <ele>2334.85</ele>
        <time>2014-02-25T12:47:51Z</time>
      </trkpt>
      <trkpt lat="44.8461" lon="6.70882">
        <ele>2331.85</ele>
        <time>2014-02-25T12:47:55Z</time>
      </trkpt>
      <trkpt lat="44.84597" lon="6.70901">
        <ele>2322.95</ele>
        <time>2014-02-25T12:50:44Z</time>
      </trkpt>
      <trkpt lat="44.84582" lon="6.70916">
        <ele>2316.56</ele>
        <time>2014-02-25T12:51:09Z</time>
      </trkpt>
      <trkpt lat="44.84592" lon="6.7094">
        <ele>2314.9</ele>
        <time>2014-02-25T13:28:25Z</time>
      </trkpt>
      <trkpt lat="44.84608" lon="6.70953">
        <ele>2308.83</ele>
        <time>2014-02-25T13:28:31Z</time>
      </trkpt>
      <trkpt lat="44.84601" lon="6.70976">
        <ele>2301.83</ele>
        <time>2014-02-25T13:28:44Z</time>
      </trkpt>
      <trkpt lat="44.84587" lon="6.70994">
        <ele>2289.95</ele>
        <time>2014-02-25T13:29:25Z</time>
      </trkpt>
      <trkpt lat="44.84575" lon="6.71014">
        <ele>2285.74</ele>
        <time>2014-02-25T13:29:45Z</time>
      </trkpt>
      <trkpt lat="44.84571" lon="6.71041">
        <ele>2272.96</ele>
        <time>2014-02-25T13:33:47Z</time>
      </trkpt>
      <trkpt lat="44.8457" lon="6.7107">
        <ele>2266.43</ele>
        <time>2014-02-25T13:33:55Z</time>
      </trkpt>
      <trkpt lat="44.84583" lon="6.71087">
        <ele>2258.46</ele>
        <time>2014-02-25T13:36:41Z</time>
      </trkpt>
      <trkpt lat="44.84602" lon="6.71105">
        <ele>2255.76</ele>
        <time>2014-02-25T13:36:49Z</time>
      </trkpt>
      <trkpt lat="44.84618" lon="6.71116">
        <ele>2253.98</ele>
        <time>2014-02-25T13:36:57Z</time>
      </trkpt>
      <trkpt lat="44.84633" lon="6.71141">
        <ele>2249.42</ele>
        <time>2014-02-25T13:37:03Z</time>
      </trkpt>
      <trkpt lat="44.8465" lon="6.71155">
        <ele>2248.9</ele>
        <time>2014-02-25T13:37:16Z</time>
      </trkpt>
      <trkpt lat="44.84667" lon="6.71171">
        <ele>2241.96</ele>
        <time>2014-02-25T13:37:30Z</time>
      </trkpt>
      <trkpt lat="44.84676" lon="6.71198">
        <ele>2234.85</ele>
        <time>2014-02-25T13:37:56Z</time>
      </trkpt>
      <trkpt lat="44.84694" lon="6.71194">
        <ele>2229.2</ele>
        <time>2014-02-25T13:39:15Z</time>
      </trkpt>
      <trkpt lat="44.84711" lon="6.71204">
        <ele>2224.69</ele>
        <time>2014-02-25T13:39:32Z</time>
      </trkpt>
      <trkpt lat="44.84726" lon="6.71218">
        <ele>2215.35</ele>
        <time>2014-02-25T13:39:50Z</time>
      </trkpt>
      <trkpt lat="44.84741" lon="6.71202">
        <ele>2211.02</ele>
        <time>2014-02-25T13:40:00Z</time>
      </trkpt>
      <trkpt lat="44.84759" lon="6.71195">
        <ele>2207.07</ele>
        <time>2014-02-25T13:40:49Z</time>
      </trkpt>
      <trkpt lat="44.84775" lon="6.71208">
        <ele>2190.58</ele>
        <time>2014-02-25T13:41:17Z</time>
      </trkpt>
      <trkpt lat="44.84794" lon="6.71214">
        <ele>2181.51</ele>
        <time>2014-02-25T13:41:31Z</time>
      </trkpt>
      <trkpt lat="44.84804" lon="6.71192">
        <ele>2176.95</ele>
        <time>2014-02-25T13:41:36Z</time>
      </trkpt>
      <trkpt lat="44.84813" lon="6.71218">
        <ele>2166.76</ele>
        <time>2014-02-25T13:42:05Z</time>
      </trkpt>
      <trkpt lat="44.84824" lon="6.71241">
        <ele>2163.84</ele>
        <time>2014-02-25T13:42:09Z</time>
      </trkpt>
      <trkpt lat="44.84832" lon="6.71263">
        <ele>2158.64</ele>
        <time>2014-02-25T13:42:15Z</time>
      </trkpt>
      <trkpt lat="44.8485" lon="6.71274">
        <ele>2154.06</ele>
        <time>2014-02-25T13:42:21Z</time>
      </trkpt>
      <trkpt lat="44.8486" lon="6.71248">
        <ele>2146.52</ele>
        <time>2014-02-25T13:43:15Z</time>
      </trkpt>
      <trkpt lat="44.84875" lon="6.71235">
        <ele>2145.63</ele>
        <time>2014-02-25T13:43:27Z</time>
      </trkpt>
      <trkpt lat="44.8489" lon="6.7125">
        <ele>2137.9</ele>
        <time>2014-02-25T13:43:37Z</time>
      </trkpt>
      <trkpt lat="44.84908" lon="6.7126">
        <ele>2128.24</ele>
        <time>2014-02-25T13:43:49Z</time>
      </trkpt>
      <trkpt lat="44.84928" lon="6.71266">
        <ele>2119.13</ele>
        <time>2014-02-25T13:43:56Z</time>
      </trkpt>
      <trkpt lat="44.84943" lon="6.71286">
        <ele>2110.89</ele>
        <time>2014-02-25T13:44:06Z</time>
      </trkpt>
      <trkpt lat="44.84952" lon="6.71311">
        <ele>2096.48</ele>
        <time>2014-02-25T13:44:16Z</time>
      </trkpt>
      <trkpt lat="44.84945" lon="6.71337">
        <ele>2086.34</ele>
        <time>2014-02-25T13:44:29Z</time>
      </trkpt>
      <trkpt lat="44.84952" lon="6.71361">
        <ele>2077.96</ele>
        <time>2014-02-25T13:44:40Z</time>
      </trkpt>
      <trkpt lat="44.84962" lon="6.71383">
        <ele>2072.72</ele>
        <time>2014-02-25T13:44:48Z</time>
      </trkpt>
      <trkpt lat="44.8498" lon="6.71386">
        <ele>2062.91</ele>
        <time>2014-02-25T13:46:28Z</time>
      </trkpt>
      <trkpt lat="44.84998" lon="6.71392">
        <ele>2056.94</ele>
        <time>2014-02-25T13:46:35Z</time>
      </trkpt>
      <trkpt lat="44.85015" lon="6.71407">
        <ele>2044.13</ele>
        <time>2014-02-25T13:46:44Z</time>
      </trkpt>
      <trkpt lat="44.85028" lon="6.71424">
        <ele>2033.61</ele>
        <time>2014-02-25T13:46:52Z</time>
      </trkpt>
      <trkpt lat="44.85044" lon="6.71439">
        <ele>2032.79</ele>
        <time>2014-02-25T13:47:01Z</time>
      </trkpt>
      <trkpt lat="44.85063" lon="6.71432">
        <ele>2018.4</ele>
        <time>2014-02-25T13:47:14Z</time>
      </trkpt>
      <trkpt lat="44.85078" lon="6.71452">
        <ele>2011.98</ele>
        <time>2014-02-25T13:47:20Z</time>
      </trkpt>
      <trkpt lat="44.85095" lon="6.71461">
        <ele>2007.87</ele>
        <time>2014-02-25T13:47:25Z</time>
      </trkpt>
      <trkpt lat="44.85112" lon="6.71473">
        <ele>1997.82</ele>
        <time>2014-02-25T13:47:34Z</time>
      </trkpt>
      <trkpt lat="44.85103" lon="6.71497">
        <ele>1987.05</ele>
        <time>2014-02-25T13:48:33Z</time>
      </trkpt>
      <trkpt lat="44.85113" lon="6.71518">
        <ele>1980.2</ele>
        <time>2014-02-25T13:48:40Z</time>
      </trkpt>
      <trkpt lat="44.85125" lon="6.71539">
        <ele>1972.8</ele>
        <time>2014-02-25T13:48:47Z</time>
      </trkpt>
      <trkpt lat="44.85133" lon="6.71566">
        <ele>1960.56</ele>
        <time>2014-02-25T13:48:54Z</time>
      </trkpt>
      <trkpt lat="44.85142" lon="6.71591">
        <ele>1945.46</ele>
        <time>2014-02-25T13:49:02Z</time>
      </trkpt>
      <trkpt lat="44.85149" lon="6.71615">
        <ele>1940.07</ele>
        <time>2014-02-25T13:49:09Z</time>
      </trkpt>
      <trkpt lat="44.85153" lon="6.71642">
        <ele>1934.78</ele>
        <time>2014-02-25T13:49:15Z</time>
      </trkpt>
      <trkpt lat="44.8516" lon="6.71667">
        <ele>1930.67</ele>
        <time>2014-02-25T13:49:21Z</time>
      </trkpt>
      <trkpt lat="44.85177" lon="6.71677">
        <ele>1914.04</ele>
        <time>2014-02-25T13:51:00Z</time>
      </trkpt>
      <trkpt lat="44.85188" lon="6.71699">
        <ele>1912.11</ele>
        <time>2014-02-25T13:51:08Z</time>
      </trkpt>
      <trkpt lat="44.85196" lon="6.71722">
        <ele>1909.46</ele>
        <time>2014-02-25T13:51:15Z</time>
      </trkpt>
      <trkpt lat="44.85212" lon="6.71734">
        <ele>1902.3</ele>
        <time>2014-02-25T13:51:43Z</time>
      </trkpt>
      <trkpt lat="44.85216" lon="6.71759">
        <ele>1900.84</ele>
        <time>2014-02-25T13:52:06Z</time>
      </trkpt>
      <trkpt lat="44.85227" lon="6.71781">
        <ele>1893.81</ele>
        <time>2014-02-25T13:52:19Z</time>
      </trkpt>
      <trkpt lat="44.85242" lon="6.71799">
        <ele>1894.71</ele>
        <time>2014-02-25T13:52:31Z</time>
      </trkpt>
      <trkpt lat="44.85251" lon="6.71825">
        <ele>1889.85</ele>
        <time>2014-02-25T13:52:39Z</time>
      </trkpt>
      <trkpt lat="44.85263" lon="6.71844">
        <ele>1884.95</ele>
        <time>2014-02-25T13:52:58Z</time>
      </trkpt>
      <trkpt lat="44.85281" lon="6.7185">
        <ele>1879.67</ele>
        <time>2014-02-25T13:53:07Z</time>
      </trkpt>
      <trkpt lat="44.85286" lon="6.71876">
        <ele>1873.06</ele>
        <time>2014-02-25T13:53:19Z</time>
      </trkpt>
      <trkpt lat="44.85293" lon="6.719">
        <ele>1869.92</ele>
        <time>2014-02-25T13:53:28Z</time>
      </trkpt>
      <trkpt lat="44.853" lon="6.71926">
        <ele>1862.4</ele>
        <time>2014-02-25T13:53:43Z</time>
      </trkpt>
      <trkpt lat="44.85306" lon="6.71951">
        <ele>1864.76</ele>
        <time>2014-02-25T13:54:21Z</time>
      </trkpt>
      <trkpt lat="44.85311" lon="6.71977">
        <ele>1864.01</ele>
        <time>2014-02-25T13:54:33Z</time>
      </trkpt>
      <trkpt lat="44.85322" lon="6.71997">
        <ele>1854.29</ele>
        <time>2014-02-25T13:54:40Z</time>
      </trkpt>
      <trkpt lat="44.85329" lon="6.72022">
        <ele>1852.85</ele>
        <time>2014-02-25T13:54:46Z</time>
      </trkpt>
      <trkpt lat="44.85338" lon="6.72044">
        <ele>1854.18</ele>
        <time>2014-02-25T13:54:51Z</time>
      </trkpt>
      <trkpt lat="44.85349" lon="6.72064">
        <ele>1852.72</ele>
        <time>2014-02-25T13:54:57Z</time>
      </trkpt>
      <trkpt lat="44.85357" lon="6.72087">
        <ele>1849.65</ele>
        <time>2014-02-25T13:55:07Z</time>
      </trkpt>
      <trkpt lat="44.85364" lon="6.72115">
        <ele>1847.95</ele>
        <time>2014-02-25T13:55:13Z</time>
      </trkpt>
      <trkpt lat="44.85376" lon="6.72133">
        <ele>1845.46</ele>
        <time>2014-02-25T13:55:18Z</time>
      </trkpt>
      <trkpt lat="44.85388" lon="6.72155">
        <ele>1839.62</ele>
        <time>2014-02-25T13:55:24Z</time>
      </trkpt>
      <trkpt lat="44.85403" lon="6.72171">
        <ele>1836.45</ele>
        <time>2014-02-25T13:55:30Z</time>
      </trkpt>
      <trkpt lat="44.85414" lon="6.72195">
        <ele>1828.5</ele>
        <time>2014-02-25T13:55:40Z</time>
      </trkpt>
      <trkpt lat="44.85423" lon="6.72222">
        <ele>1825.91</ele>
        <time>2014-02-25T13:55:46Z</time>
      </trkpt>
      <trkpt lat="44.85425" lon="6.7225">
        <ele>1822.83</ele>
        <time>2014-02-25T13:55:51Z</time>
      </trkpt>
      <trkpt lat="44.85435" lon="6.72275">
        <ele>1814.85</ele>
        <time>2014-02-25T13:55:58Z</time>
      </trkpt>
      <trkpt lat="44.85449" lon="6.72296">
        <ele>1810.78</ele>
        <time>2014-02-25T13:56:02Z</time>
      </trkpt>
      <trkpt lat="44.85465" lon="6.72309">
        <ele>1805.89</ele>
        <time>2014-02-25T13:56:07Z</time>
      </trkpt>
      <trkpt lat="44.85469" lon="6.72334">
        <ele>1800.19</ele>
        <time>2014-02-25T13:56:18Z</time>
      </trkpt>
      <trkpt lat="44.85461" lon="6.72358">
        <ele>1793.47</ele>
        <time>2014-02-25T13:56:24Z</time>
      </trkpt>
      <trkpt lat="44.8547" lon="6.72382">
        <ele>1791.96</ele>
        <time>2014-02-25T13:56:30Z</time>
      </trkpt>
      <trkpt lat="44.85471" lon="6.72408">
        <ele>1790.52</ele>
        <time>2014-02-25T13:56:35Z</time>
      </trkpt>
      <trkpt lat="44.85478" lon="6.72435">
        <ele>1782.01</ele>
        <time>2014-02-25T13:56:45Z</time>
      </trkpt>
      <trkpt lat="44.85485" lon="6.72458">
        <ele>1778.99</ele>
        <time>2014-02-25T13:56:54Z</time>
      </trkpt>
      <trkpt lat="44.85489" lon="6.72487">
        <ele>1775.85</ele>
        <time>2014-02-25T13:56:58Z</time>
      </trkpt>
      <trkpt lat="44.8549" lon="6.72519">
        <ele>1772.3</ele>
        <time>2014-02-25T13:57:03Z</time>
      </trkpt>
      <trkpt lat="44.85492" lon="6.72546">
        <ele>1772</ele>
        <time>2014-02-25T13:57:07Z</time>
      </trkpt>
      <trkpt lat="44.85493" lon="6.72572">
        <ele>1768.51</ele>
        <time>2014-02-25T13:57:10Z</time>
      </trkpt>
      <trkpt lat="44.85496" lon="6.72601">
        <ele>1766.39</ele>
        <time>2014-02-25T13:57:14Z</time>
      </trkpt>
      <trkpt lat="44.85501" lon="6.72632">
        <ele>1763.69</ele>
        <time>2014-02-25T13:57:18Z</time>
      </trkpt>
      <trkpt lat="44.85504" lon="6.72657">
        <ele>1762.15</ele>
        <time>2014-02-25T13:57:22Z</time>
      </trkpt>
      <trkpt lat="44.85512" lon="6.7268">
        <ele>1756.73</ele>
        <time>2014-02-25T13:57:36Z</time>
      </trkpt>
      <trkpt lat="44.85512" lon="6.72705">
        <ele>1754.45</ele>
        <time>2014-02-25T13:59:28Z</time>
      </trkpt>
      <trkpt lat="44.8553" lon="6.72711">
        <ele>1747.94</ele>
        <time>2014-02-25T13:59:52Z</time>
      </trkpt>
      <trkpt lat="44.85544" lon="6.72695">
        <ele>1739.41</ele>
        <time>2014-02-25T14:00:34Z</time>
      </trkpt>
    </trkseg>
  </trk>
</gpx>